Time;durP1;ratioP1;P1;durP2;ratioP2;P2;SDS_P1;SDS_P2;PMS_P1;PMS_P2;Temp;Humidity;BMP_temperature;BMP_pressure;BME280_temperature;BME280_humidity;BME280_pressure;Samples;Min_cycle;Max_cycle;Signal;HPM_P1;HPM_P2
2023/10/18 00:00:33;;;;;;;4.20;2.00;;;4.50;99.90;;;;;;7296487;32;20231;-54
2023/10/18 00:04:36;;;;;;;3.50;2.30;;;4.50;99.90;;;;;;7298213;32;20139;-55
2023/10/18 00:08:39;;;;;;;3.37;1.70;;;4.50;99.90;;;;;;7299852;32;20704;-54
2023/10/18 00:12:41;;;;;;;4.20;2.03;;;4.40;99.90;;;;;;7302920;32;20134;-55
2023/10/18 00:16:43;;;;;;;4.00;2.17;;;4.30;99.90;;;;;;7297627;32;20124;-54
2023/10/18 00:20:44;;;;;;;4.45;2.75;;;4.30;99.90;;;;;;7293096;32;20337;-54
2023/10/18 00:24:46;;;;;;;3.70;2.12;;;4.20;99.90;;;;;;7295675;32;20211;-56
2023/10/18 00:28:48;;;;;;;5.47;2.65;;;4.20;99.90;;;;;;7292201;32;20648;-56
2023/10/18 00:32:50;;;;;;;4.62;3.00;;;4.20;99.90;;;;;;7297637;32;20762;-55
2023/10/18 00:36:52;;;;;;;5.25;2.83;;;4.20;99.90;;;;;;7295233;32;20300;-57
2023/10/18 00:40:56;;;;;;;3.83;2.58;;;4.10;99.90;;;;;;7296403;32;20122;-55
2023/10/18 00:45:08;;;;;;;3.33;2.25;;;4.10;99.90;;;;;;7299047;32;20670;-54
2023/10/18 00:49:20;;;;;;;5.40;2.40;;;4.10;99.90;;;;;;7297472;32;20254;-55
2023/10/18 00:53:24;;;;;;;4.97;2.55;;;4.00;99.90;;;;;;7294130;32;20138;-55
2023/10/18 00:57:34;;;;;;;4.53;2.53;;;4.00;99.90;;;;;;7296224;32;20210;-57
2023/10/18 01:02:03;;;;;;;4.20;2.37;;;4.00;99.90;;;;;;7299335;32;20500;-55
2023/10/18 01:06:08;;;;;;;5.18;2.92;;;3.90;99.90;;;;;;7298867;32;20203;-55
2023/10/18 01:10:12;;;;;;;4.75;2.72;;;3.90;99.90;;;;;;7301952;32;20116;-55
2023/10/18 01:14:17;;;;;;;5.32;3.10;;;3.90;99.90;;;;;;7290236;32;20469;-55
2023/10/18 01:18:18;;;;;;;5.28;2.95;;;3.90;99.90;;;;;;7284657;32;20831;-55
2023/10/18 01:22:23;;;;;;;9.43;3.30;;;3.80;99.90;;;;;;7300019;32;20140;-55
2023/10/18 01:26:27;;;;;;;4.60;2.90;;;3.80;99.90;;;;;;7297358;32;20108;-55
2023/10/18 01:30:29;;;;;;;7.97;3.25;;;3.90;99.90;;;;;;7296640;32;20642;-55
2023/10/18 01:34:31;;;;;;;5.72;3.10;;;3.80;99.90;;;;;;7287263;32;20575;-54
2023/10/18 01:38:33;;;;;;;4.03;2.45;;;3.70;99.90;;;;;;7299793;32;20222;-54
2023/10/18 01:42:37;;;;;;;4.00;2.80;;;3.70;99.90;;;;;;7297528;32;20119;-54
2023/10/18 01:46:46;;;;;;;4.43;2.92;;;3.60;99.90;;;;;;7299518;32;20199;-53
2023/10/18 01:50:50;;;;;;;3.97;2.50;;;3.60;99.90;;;;;;7299731;32;20111;-54
2023/10/18 01:54:52;;;;;;;5.47;2.97;;;3.50;99.90;;;;;;7290627;32;20116;-54
2023/10/18 01:58:54;;;;;;;3.92;2.53;;;3.60;99.90;;;;;;7302348;32;20285;-54
2023/10/18 02:02:56;;;;;;;3.70;2.50;;;3.70;99.90;;;;;;7297644;32;20284;-55
2023/10/18 02:07:01;;;;;;;4.87;3.00;;;3.70;99.90;;;;;;7301793;32;20252;-54
2023/10/18 02:11:06;;;;;;;6.25;3.17;;;3.70;99.90;;;;;;7293342;32;20608;-54
2023/10/18 02:15:10;;;;;;;5.57;3.08;;;3.60;99.90;;;;;;7298919;32;20153;-55
2023/10/18 02:19:13;;;;;;;5.05;3.03;;;3.60;99.90;;;;;;7304132;32;20233;-54
2023/10/18 02:23:16;;;;;;;4.47;3.12;;;3.60;99.90;;;;;;7294562;32;20139;-54
2023/10/18 02:27:19;;;;;;;5.47;3.15;;;3.50;99.90;;;;;;7296154;32;20242;-54
2023/10/18 02:31:21;;;;;;;5.20;2.97;;;3.50;99.90;;;;;;7301087;32;20574;-54
2023/10/18 02:35:23;;;;;;;5.68;2.40;;;3.50;99.90;;;;;;7295951;32;20205;-55
2023/10/18 02:39:32;;;;;;;5.22;2.55;;;3.50;99.90;;;;;;7304548;32;20131;-55
2023/10/18 02:43:34;;;;;;;4.47;2.67;;;3.50;99.90;;;;;;7302040;32;20135;-56
2023/10/18 02:47:36;;;;;;;4.60;2.67;;;3.50;99.90;;;;;;7302311;32;20202;-55
2023/10/18 02:51:40;;;;;;;4.20;2.58;;;3.50;99.90;;;;;;7297804;32;20119;-55
2023/10/18 02:55:45;;;;;;;4.12;2.75;;;3.40;99.90;;;;;;7297646;32;20198;-54
2023/10/18 02:59:50;;;;;;;5.65;2.90;;;3.40;99.90;;;;;;7293436;32;21723;-54
2023/10/18 03:03:55;;;;;;;6.35;2.83;;;3.40;99.90;;;;;;7283848;32;20217;-56
2023/10/18 03:07:57;;;;;;;3.72;2.17;;;3.40;99.90;;;;;;7291908;32;20183;-54
2023/10/18 03:11:59;;;;;;;5.87;2.92;;;3.40;99.90;;;;;;7296229;32;20112;-55
2023/10/18 03:16:15;;;;;;;5.65;3.05;;;3.30;99.90;;;;;;7289701;32;20116;-54
2023/10/18 03:20:23;;;;;;;3.67;2.60;;;3.20;99.90;;;;;;7297138;32;20219;-54
2023/10/18 03:24:27;;;;;;;4.28;2.80;;;3.20;99.90;;;;;;7292703;32;20714;-55
2023/10/18 03:28:36;;;;;;;6.45;2.97;;;3.30;99.90;;;;;;7296481;32;20219;-54
2023/10/18 03:32:38;;;;;;;5.00;3.42;;;3.30;99.90;;;;;;7295579;32;20123;-54
2023/10/18 03:36:49;;;;;;;6.78;3.00;;;3.20;99.90;;;;;;7294859;32;20202;-54
2023/10/18 03:41:07;;;;;;;7.93;3.08;;;3.20;99.90;;;;;;7294133;32;20398;-53
2023/10/18 03:45:13;;;;;;;3.92;2.60;;;3.20;99.90;;;;;;7294825;32;20096;-54
2023/10/18 03:49:33;;;;;;;8.52;2.92;;;3.20;99.90;;;;;;7296429;32;20147;-54
2023/10/18 03:53:36;;;;;;;5.80;2.85;;;3.20;99.90;;;;;;7296516;32;20112;-56
2023/10/18 03:57:38;;;;;;;6.32;3.30;;;3.20;99.90;;;;;;7297958;32;20451;-54
2023/10/18 04:01:42;;;;;;;5.35;3.33;;;3.20;99.90;;;;;;7293754;32;20287;-53
2023/10/18 04:05:49;;;;;;;8.73;3.83;;;3.10;99.90;;;;;;7299835;32;20162;-54
2023/10/18 04:09:54;;;;;;;5.53;3.83;;;3.20;99.90;;;;;;7296185;32;20826;-54
2023/10/18 04:13:56;;;;;;;6.75;3.55;;;3.20;99.90;;;;;;7296004;32;20108;-55
2023/10/18 04:18:11;;;;;;;7.62;3.72;;;3.10;99.90;;;;;;7295389;32;20112;-56
2023/10/18 04:22:14;;;;;;;4.45;3.33;;;3.20;99.90;;;;;;7295054;32;20238;-54
2023/10/18 04:26:19;;;;;;;4.80;3.45;;;3.30;99.90;;;;;;7297043;32;20238;-54
2023/10/18 04:30:22;;;;;;;4.03;3.20;;;3.20;99.90;;;;;;7294513;32;20706;-54
2023/10/18 04:34:29;;;;;;;4.90;3.60;;;3.20;99.90;;;;;;7290060;32;20100;-55
2023/10/18 04:38:36;;;;;;;;;;;3.20;99.90;;;;;;7291041;32;20363;-55
2023/10/18 04:42:38;;;;;;;6.10;3.70;;;3.20;99.90;;;;;;7293990;32;20259;-54
2023/10/18 04:46:40;;;;;;;6.37;3.55;;;3.20;99.90;;;;;;7297427;32;20653;-55
2023/10/18 04:50:50;;;;;;;8.38;4.20;;;3.30;99.90;;;;;;7293241;32;20123;-54
2023/10/18 04:55:04;;;;;;;5.97;4.43;;;3.20;99.90;;;;;;7293772;32;20158;-53
2023/10/18 04:59:10;;;;;;;6.25;4.22;;;3.20;99.90;;;;;;7294400;32;20116;-56
2023/10/18 05:03:13;;;;;;;8.95;4.60;;;3.20;99.90;;;;;;7282342;32;20794;-53
2023/10/18 05:07:15;;;;;;;5.90;4.22;;;3.30;99.90;;;;;;7296643;32;20111;-54
2023/10/18 05:11:24;;;;;;;7.53;4.45;;;3.30;99.90;;;;;;7292174;32;20111;-54
2023/10/18 05:15:29;;;;;;;7.10;4.62;;;3.30;99.90;;;;;;7283990;32;20127;-54
2023/10/18 05:19:37;;;;;;;5.10;3.67;;;3.30;99.90;;;;;;7291328;32;20177;-54
2023/10/18 05:23:41;;;;;;;7.12;4.05;;;3.40;99.90;;;;;;7277426;32;20168;-54
2023/10/18 05:27:59;;;;;;;6.37;4.22;;;3.40;99.90;;;;;;7292379;32;20103;-54
2023/10/18 05:32:13;;;;;;;7.28;4.80;;;3.30;99.90;;;;;;7289147;32;20132;-54
2023/10/18 05:44:38;;;;;;;8.45;5.05;;;3.20;99.90;;;;;;7280692;32;20239;-54
2023/10/18 05:48:43;;;;;;;6.75;4.30;;;3.20;99.90;;;;;;7298078;32;20267;-54
2023/10/18 05:52:49;;;;;;;10.63;4.20;;;3.30;99.90;;;;;;7296815;32;20143;-55
2023/10/18 05:56:51;;;;;;;6.65;3.97;;;3.30;99.90;;;;;;7293345;32;20203;-54
2023/10/18 06:00:55;;;;;;;6.18;3.90;;;3.30;99.90;;;;;;7298207;32;20203;-54
2023/10/18 06:04:57;;;;;;;6.20;4.12;;;3.30;99.90;;;;;;7288359;32;20104;-56
2023/10/18 06:09:00;;;;;;;7.18;4.15;;;3.30;99.90;;;;;;7301289;32;20552;-56
2023/10/18 06:13:09;;;;;;;19.33;11.23;;;3.30;99.90;;;;;;7286613;32;20126;-55
2023/10/18 06:17:12;;;;;;;6.95;4.10;;;3.30;99.90;;;;;;7302791;32;20111;-54
2023/10/18 06:21:20;;;;;;;4.70;3.50;;;3.30;99.90;;;;;;7301152;32;20128;-55
2023/10/18 06:25:34;;;;;;;6.55;3.55;;;3.40;99.90;;;;;;7297980;32;21601;-55
2023/10/18 06:29:36;;;;;;;4.90;3.55;;;3.40;99.90;;;;;;7296700;32;20300;-56
2023/10/18 06:33:40;;;;;;;6.55;3.90;;;3.40;99.90;;;;;;7294392;32;20124;-56
2023/10/18 06:37:42;;;;;;;7.40;4.20;;;3.50;99.90;;;;;;7298656;32;20134;-56
2023/10/18 06:41:45;;;;;;;7.40;3.42;;;3.60;99.90;;;;;;7297221;32;20164;-56
2023/10/18 06:45:51;;;;;;;7.25;4.28;;;3.70;99.90;;;;;;7297263;32;20846;-56
2023/10/18 06:49:58;;;;;;;7.47;3.47;;;3.80;99.90;;;;;;7296423;32;20115;-56
2023/10/18 06:54:30;;;;;;;6.25;3.58;;;3.90;99.90;;;;;;7302758;32;20127;-57
2023/10/18 07:02:34;;;;;;;8.52;3.83;;;4.10;99.90;;;;;;7299106;32;20834;-55
2023/10/18 07:06:35;;;;;;;5.68;3.30;;;4.20;99.90;;;;;;7298130;32;20133;-55
2023/10/18 07:10:54;;;;;;;5.85;3.97;;;4.40;99.90;;;;;;7290685;32;20127;-55
2023/10/18 07:15:16;;;;;;;4.90;3.60;;;4.50;99.90;;;;;;7294301;32;20096;-55
2023/10/18 07:19:25;;;;;;;7.47;3.97;;;4.60;99.90;;;;;;7296568;32;20111;-55
2023/10/18 07:23:27;;;;;;;7.72;4.25;;;4.60;99.90;;;;;;7287724;32;20191;-56
2023/10/18 07:27:32;;;;;;;7.00;4.18;;;4.80;99.90;;;;;;7303352;32;20104;-56
2023/10/18 07:31:44;;;;;;;6.07;3.92;;;4.90;99.90;;;;;;7300586;32;20100;-55
2023/10/18 07:35:47;;;;;;;7.60;4.80;;;5.10;99.90;;;;;;7298017;32;20502;-56
2023/10/18 07:39:56;;;;;;;8.13;4.95;;;5.10;99.90;;;;;;7300847;32;20111;-55
2023/10/18 07:43:58;;;;;;;5.18;3.92;;;5.30;99.90;;;;;;7295272;32;20165;-55
2023/10/18 07:48:05;;;;;;;6.82;4.53;;;5.60;99.90;;;;;;7299841;32;20135;-55
2023/10/18 07:52:07;;;;;;;7.57;4.05;;;5.80;99.90;;;;;;7286692;32;20190;-55
2023/10/18 07:56:11;;;;;;;7.10;4.35;;;6.00;99.90;;;;;;7303266;32;20443;-55
2023/10/18 08:00:22;;;;;;;6.65;4.37;;;6.20;99.90;;;;;;7298102;32;20176;-55
2023/10/18 08:04:24;;;;;;;7.53;4.82;;;6.30;99.90;;;;;;7296798;32;20115;-55
2023/10/18 08:08:26;;;;;;;7.93;4.75;;;6.50;99.90;;;;;;7297129;32;20284;-55
2023/10/18 08:12:28;;;;;;;8.65;5.05;;;6.50;99.90;;;;;;7292041;32;20136;-55
2023/10/18 08:16:43;;;;;;;7.18;5.05;;;6.80;99.90;;;;;;7299191;32;20204;-55
2023/10/18 08:24:49;;;;;;;7.10;4.55;;;7.30;99.90;;;;;;7302266;32;20528;-55
2023/10/18 08:28:53;;;;;;;5.45;4.28;;;7.60;99.90;;;;;;7302009;32;20162;-56
2023/10/18 08:32:55;;;;;;;7.00;3.97;;;7.90;99.90;;;;;;7301308;32;20371;-56
2023/10/18 08:37:01;;;;;;;8.40;3.75;;;8.10;99.90;;;;;;7299963;32;20181;-56
2023/10/18 08:41:13;;;;;;;8.43;3.62;;;8.50;99.90;;;;;;7295869;32;20530;-55
2023/10/18 08:45:19;;;;;;;8.93;4.15;;;8.90;99.90;;;;;;7291417;32;20115;-57
2023/10/18 08:49:23;;;;;;;5.82;3.70;;;9.10;99.90;;;;;;7298998;32;20210;-56
2023/10/18 08:53:31;;;;;;;7.47;3.20;;;9.40;99.90;;;;;;7299704;32;20556;-56
2023/10/18 08:57:36;;;;;;;4.95;3.55;;;9.70;99.90;;;;;;7301268;32;20648;-56
2023/10/18 09:01:52;;;;;;;5.55;3.60;;;10.10;99.90;;;;;;7291449;32;20471;-56
2023/10/18 09:06:05;;;;;;;5.40;2.85;;;10.60;99.90;;;;;;7290505;32;20169;-56
2023/10/18 09:10:33;;;;;;;6.75;3.15;;;11.40;99.90;;;;;;7285547;32;20242;-55
2023/10/18 09:14:35;;;;;;;6.87;2.72;;;11.80;99.90;;;;;;7291735;32;20177;-57
2023/10/18 09:18:38;;;;;;;5.50;2.80;;;11.90;99.90;;;;;;7294750;32;20116;-56
2023/10/18 09:22:44;;;;;;;5.28;2.90;;;11.90;99.90;;;;;;7295483;32;20131;-56
2023/10/18 09:26:47;;;;;;;4.12;2.85;;;12.00;99.90;;;;;;7291019;32;20130;-56
2023/10/18 09:30:49;;;;;;;5.82;3.20;;;12.10;99.90;;;;;;7297421;32;20167;-55
2023/10/18 09:34:51;;;;;;;6.35;2.70;;;12.40;99.90;;;;;;7296182;32;20207;-56
2023/10/18 09:38:54;;;;;;;4.07;2.83;;;12.70;99.90;;;;;;7296229;32;20111;-56
2023/10/18 09:42:57;;;;;;;6.75;3.20;;;12.80;99.90;;;;;;7294926;32;20112;-56
2023/10/18 09:46:59;;;;;;;4.07;2.67;;;13.00;99.90;;;;;;7304041;32;20301;-56
2023/10/18 09:51:08;;;;;;;3.87;2.67;;;13.40;99.90;;;;;;7296301;32;20253;-56
2023/10/18 09:55:16;;;;;;;11.48;3.33;;;13.50;99.90;;;;;;7297799;32;20170;-56
2023/10/18 09:59:26;;;;;;;6.07;2.97;;;13.70;99.90;;;;;;7306830;32;20712;-56
2023/10/18 10:03:30;;;;;;;5.03;3.05;;;13.80;99.90;;;;;;7298975;32;20500;-56
2023/10/18 10:07:41;;;;;;;4.35;2.62;;;13.60;99.90;;;;;;7302044;32;20176;-56
2023/10/18 10:11:47;;;;;;;5.28;3.00;;;13.40;99.90;;;;;;7297541;32;20175;-57
2023/10/18 10:15:54;;;;;;;4.68;2.55;;;13.40;99.90;;;;;;7297878;32;20108;-56
2023/10/18 10:20:10;;;;;;;4.55;2.65;;;13.50;99.90;;;;;;7300336;32;20859;-56
2023/10/18 10:24:59;;;;;;;3.53;2.40;;;13.40;99.90;;;;;;7294741;32;20108;-55
2023/10/18 10:33:12;;;;;;;5.62;2.30;;;13.40;99.90;;;;;;7300586;32;20149;-57
2023/10/18 10:37:23;;;;;;;4.85;2.35;;;13.50;99.90;;;;;;7299421;32;20111;-56
2023/10/18 10:41:30;;;;;;;3.58;1.87;;;13.20;99.90;;;;;;7302556;32;20247;-56
2023/10/18 10:49:48;;;;;;;4.68;1.98;;;13.20;99.90;;;;;;7295308;32;20715;-55
2023/10/18 10:53:57;;;;;;;4.87;2.12;;;13.40;99.90;;;;;;7304013;32;20100;-56
2023/10/18 10:58:15;;;;;;;4.78;2.03;;;13.30;99.90;;;;;;7296039;32;20539;-55
2023/10/18 11:02:24;;;;;;;4.85;2.10;;;13.30;99.90;;;;;;7296733;32;20520;-56
2023/10/18 11:06:32;;;;;;;4.20;1.90;;;13.00;99.90;;;;;;7297063;32;20642;-57
2023/10/18 11:10:39;;;;;;;4.60;1.90;;;13.30;99.90;;;;;;7289494;32;20104;-57
2023/10/18 11:14:44;;;;;;;3.78;2.00;;;13.40;99.90;;;;;;7291599;32;20104;-56
2023/10/18 11:18:48;;;;;;;2.62;2.03;;;13.60;99.90;;;;;;7297893;32;20259;-56
2023/10/18 11:22:54;;;;;;;2.80;1.60;;;13.60;99.90;;;;;;7297646;32;20278;-55
2023/10/18 11:26:58;;;;;;;3.25;2.03;;;13.60;99.90;;;;;;7300260;32;20096;-56
2023/10/18 11:31:02;;;;;;;3.92;2.00;;;13.50;99.90;;;;;;7292206;32;20096;-56
2023/10/18 11:35:10;;;;;;;2.75;1.48;;;13.60;99.90;;;;;;7294429;32;20088;-56
2023/10/18 11:43:25;;;;;;;2.95;1.40;;;13.80;99.90;;;;;;7299096;32;20139;-56
2023/10/18 11:47:29;;;;;;;3.10;1.50;;;14.00;99.90;;;;;;7296134;32;20124;-55
2023/10/18 11:51:41;;;;;;;2.55;1.30;;;14.00;99.90;;;;;;7290999;32;20100;-58
2023/10/18 11:55:55;;;;;;;4.40;1.70;;;14.10;99.90;;;;;;7296528;32;20130;-58
2023/10/18 12:04:27;;;;;;;5.60;1.45;;;14.50;99.90;;;;;;7294843;32;20515;-55
2023/10/18 12:08:40;;;;;;;2.58;1.30;;;14.50;99.90;;;;;;7292680;32;20118;-57
2023/10/18 12:12:49;;;;;;;3.00;1.30;;;14.50;99.90;;;;;;7298059;32;20647;-56
2023/10/18 12:16:54;;;;;;;4.60;1.23;;;14.60;99.90;;;;;;7292401;32;20355;-56
2023/10/18 12:20:56;;;;;;;2.90;1.42;;;14.80;99.90;;;;;;7295291;32;20675;-56
2023/10/18 12:24:59;;;;;;;3.42;1.00;;;14.90;99.90;;;;;;7295744;32;20173;-56
2023/10/18 12:29:05;;;;;;;4.32;1.60;;;14.90;99.90;;;;;;7293462;32;20135;-56
2023/10/18 12:33:14;;;;;;;3.62;1.23;;;14.90;99.90;;;;;;7296128;32;20211;-62
2023/10/18 12:37:16;;;;;;;5.05;1.48;;;15.00;99.90;;;;;;7296690;32;20195;-57
2023/10/18 12:41:19;;;;;;;3.03;1.20;;;15.00;99.90;;;;;;7295431;32;20223;-56
2023/10/18 12:45:20;;;;;;;3.17;1.50;;;15.10;99.90;;;;;;7296470;32;20120;-56
2023/10/18 12:49:22;;;;;;;1.52;1.05;;;15.00;99.90;;;;;;7296145;32;20142;-56
2023/10/18 12:57:32;;;;;;;3.33;1.40;;;15.00;99.90;;;;;;7293167;32;20476;-58
2023/10/18 13:05:46;;;;;;;2.70;1.35;;;14.90;99.90;;;;;;7295009;32;20183;-57
2023/10/18 13:09:49;;;;;;;6.07;1.15;;;15.10;99.90;;;;;;7292262;32;20119;-57
2023/10/18 13:18:55;;;;;;;3.10;1.15;;;14.80;99.90;;;;;;7288414;32;20092;-57
2023/10/18 13:22:57;;;;;;;3.40;0.95;;;14.80;99.90;;;;;;7293322;32;20207;-56
2023/10/18 13:27:03;;;;;;;2.87;1.35;;;14.80;99.90;;;;;;7293311;32;20515;-56
2023/10/18 13:31:08;;;;;;;4.90;2.28;;;14.90;99.90;;;;;;7294865;32;20190;-56
2023/10/18 13:35:14;;;;;;;3.00;1.00;;;14.80;99.90;;;;;;7296899;32;20112;-56
2023/10/18 13:39:18;;;;;;;5.47;1.50;;;15.00;99.90;;;;;;7292329;32;20143;-57
2023/10/18 13:43:19;;;;;;;5.28;1.42;;;15.10;99.90;;;;;;7293541;32;20497;-56
2023/10/18 13:47:26;;;;;;;1.90;1.10;;;15.00;99.90;;;;;;7293143;32;20240;-56
2023/10/18 13:51:34;;;;;;;2.60;1.30;;;15.00;99.90;;;;;;7293961;32;20131;-57
2023/10/18 13:55:36;;;;;;;2.87;1.62;;;15.00;99.90;;;;;;7292722;32;20508;-57
2023/10/18 13:59:39;;;;;;;4.45;1.67;;;15.00;99.90;;;;;;7297715;32;20100;-56
2023/10/18 14:03:42;;;;;;;2.30;1.08;;;15.00;99.90;;;;;;7287409;32;20207;-56
2023/10/18 14:07:44;;;;;;;3.25;1.70;;;14.90;99.90;;;;;;7291241;32;20465;-56
2023/10/18 14:11:46;;;;;;;2.62;1.20;;;14.80;99.90;;;;;;7293118;32;20185;-57
2023/10/18 14:15:49;;;;;;;3.62;1.40;;;14.70;99.90;;;;;;7294733;32;20214;-57
2023/10/18 14:19:51;;;;;;;4.30;1.50;;;14.90;99.90;;;;;;7296378;32;20128;-57
2023/10/18 14:24:15;;;;;;;3.40;1.27;;;14.70;99.90;;;;;;7300451;32;20104;-56
2023/10/18 14:28:17;;;;;;;2.95;1.20;;;14.50;99.90;;;;;;7292583;32;20447;-56
2023/10/18 14:32:19;;;;;;;2.67;1.23;;;14.50;99.90;;;;;;7297064;32;20123;-57
2023/10/18 14:36:23;;;;;;;2.75;1.30;;;14.40;99.90;;;;;;7294140;32;20118;-57
2023/10/18 14:40:34;;;;;;;2.37;1.20;;;14.20;99.90;;;;;;7303358;32;20237;-56
2023/10/18 14:44:40;;;;;;;4.05;1.17;;;14.20;99.90;;;;;;7290814;32;20127;-57
2023/10/18 14:48:42;;;;;;;3.55;1.33;;;14.10;99.90;;;;;;7298978;32;20595;-57
2023/10/18 14:52:44;;;;;;;2.53;1.37;;;13.90;99.90;;;;;;7294405;32;20104;-57
2023/10/18 14:56:47;;;;;;;3.72;1.25;;;14.00;99.90;;;;;;7289985;32;20120;-56
2023/10/18 15:00:50;;;;;;;3.75;1.30;;;13.90;99.90;;;;;;7299193;32;20134;-57
2023/10/18 15:04:52;;;;;;;5.60;1.60;;;13.80;99.90;;;;;;7292338;32;20100;-56
2023/10/18 15:08:57;;;;;;;3.85;1.48;;;13.70;99.90;;;;;;7296793;32;20626;-58
2023/10/18 15:12:59;;;;;;;3.70;1.17;;;13.70;99.90;;;;;;7293028;32;20125;-57
2023/10/18 15:17:02;;;;;;;2.92;1.37;;;13.60;99.90;;;;;;7292005;32;20277;-57
2023/10/18 15:21:05;;;;;;;6.32;1.80;;;13.60;99.90;;;;;;7297980;32;20096;-56
2023/10/18 15:25:09;;;;;;;3.05;2.17;;;13.70;99.90;;;;;;7297503;32;20116;-57
2023/10/18 15:29:12;;;;;;;5.53;1.80;;;13.50;99.90;;;;;;7299805;32;20567;-56
2023/10/18 15:33:19;;;;;;;4.40;1.98;;;13.60;99.90;;;;;;7295034;32;20602;-57
2023/10/18 15:37:21;;;;;;;3.87;1.85;;;13.60;99.90;;;;;;7298545;32;20269;-57
2023/10/18 15:41:24;;;;;;;3.10;1.60;;;13.60;99.90;;;;;;7304318;32;20096;-56
2023/10/18 15:45:26;;;;;;;4.07;1.48;;;13.50;99.90;;;;;;7299760;32;20466;-57
2023/10/18 15:49:28;;;;;;;4.60;2.08;;;13.50;99.90;;;;;;7295669;32;20092;-56
2023/10/18 15:53:30;;;;;;;3.80;1.80;;;13.30;99.90;;;;;;7294548;32;20581;-56
2023/10/18 15:57:40;;;;;;;3.12;1.50;;;13.40;99.90;;;;;;7284265;32;20128;-57
2023/10/18 16:01:42;;;;;;;3.58;1.17;;;13.40;99.90;;;;;;7296249;32;20627;-56
2023/10/18 16:06:00;;;;;;;3.58;1.23;;;13.40;99.90;;;;;;7283217;32;20152;-61
2023/10/18 16:10:02;;;;;;;3.50;1.50;;;13.40;99.90;;;;;;7294320;32;20221;-56
2023/10/18 16:14:03;;;;;;;2.92;1.65;;;13.40;99.90;;;;;;7290587;32;20126;-55
2023/10/18 16:18:05;;;;;;;4.05;1.70;;;13.40;99.90;;;;;;7298509;32;20319;-56
2023/10/18 16:22:07;;;;;;;6.75;1.48;;;13.30;99.90;;;;;;7285605;32;20109;-56
2023/10/18 16:26:17;;;;;;;6.10;1.98;;;13.30;99.90;;;;;;7293812;32;20120;-56
2023/10/18 16:30:21;;;;;;;3.65;1.70;;;13.30;99.90;;;;;;7289316;32;20104;-56
2023/10/18 16:34:23;;;;;;;5.80;1.50;;;13.40;99.90;;;;;;7290680;32;20127;-56
2023/10/18 16:38:25;;;;;;;7.03;1.65;;;13.40;99.90;;;;;;7291869;32;20122;-56
2023/10/18 16:42:27;;;;;;;4.30;1.55;;;13.20;99.90;;;;;;7272781;32;20096;-56
2023/10/18 16:46:30;;;;;;;3.83;1.70;;;13.20;99.90;;;;;;7292830;32;20118;-55
2023/10/18 16:50:32;;;;;;;3.78;1.80;;;13.20;99.90;;;;;;7297677;32;20158;-55
2023/10/18 16:54:35;;;;;;;5.00;1.33;;;13.20;99.90;;;;;;7294772;32;20099;-55
2023/10/18 16:58:40;;;;;;;6.30;2.25;;;13.20;99.90;;;;;;7298365;32;20537;-55
2023/10/18 17:02:43;;;;;;;5.47;1.73;;;13.20;99.90;;;;;;7294470;32;20805;-54
2023/10/18 17:06:45;;;;;;;4.90;1.98;;;13.10;99.90;;;;;;7296609;32;20165;-55
2023/10/18 17:10:47;;;;;;;5.85;2.22;;;13.10;99.90;;;;;;7299733;32;20589;-55
2023/10/18 17:14:49;;;;;;;4.12;2.50;;;13.10;99.90;;;;;;7295393;32;20100;-54
2023/10/18 17:18:54;;;;;;;5.18;2.87;;;13.00;99.90;;;;;;7294279;32;20252;-56
2023/10/18 17:22:56;;;;;;;5.20;2.75;;;13.10;99.90;;;;;;7294758;32;20198;-56
2023/10/18 17:26:58;;;;;;;2.70;1.75;;;13.00;99.90;;;;;;7298074;32;20254;-56
2023/10/18 17:31:00;;;;;;;4.50;1.92;;;12.90;99.90;;;;;;7295732;32;20155;-55
2023/10/18 17:35:02;;;;;;;4.90;1.77;;;12.90;99.90;;;;;;7291981;32;20213;-56
2023/10/18 17:39:04;;;;;;;4.53;1.83;;;12.80;99.90;;;;;;7295612;32;20176;-56
2023/10/18 17:43:07;;;;;;;3.37;1.92;;;12.80;99.90;;;;;;7293462;32;20139;-55
2023/10/18 17:47:08;;;;;;;5.65;1.92;;;12.80;99.90;;;;;;7296614;32;20223;-56
2023/10/18 17:51:11;;;;;;;2.87;1.70;;;12.80;99.90;;;;;;7299367;32;20100;-55
2023/10/18 17:55:18;;;;;;;3.97;2.50;;;12.80;99.90;;;;;;7301301;32;20682;-55
2023/10/18 17:59:21;;;;;;;3.15;1.80;;;12.80;99.90;;;;;;7302030;32;20195;-55
2023/10/18 18:03:23;;;;;;;9.10;4.85;;;12.70;99.90;;;;;;7295618;32;20183;-55
2023/10/18 18:07:26;;;;;;;4.60;2.30;;;12.70;99.90;;;;;;7297863;32;20175;-55
2023/10/18 18:11:28;;;;;;;4.53;2.15;;;12.70;99.90;;;;;;7302670;32;20147;-55
2023/10/18 18:15:30;;;;;;;3.90;2.20;;;12.70;99.90;;;;;;7298092;32;20240;-56
2023/10/18 18:19:33;;;;;;;5.90;2.35;;;12.80;99.90;;;;;;7300273;32;20118;-55
2023/10/18 18:23:34;;;;;;;6.28;2.60;;;12.70;99.90;;;;;;7300071;32;20095;-54
2023/10/18 18:27:36;;;;;;;4.15;2.15;;;12.70;99.90;;;;;;7301746;32;20216;-56
2023/10/18 18:31:38;;;;;;;3.53;2.37;;;12.70;99.90;;;;;;7299824;32;20187;-55
2023/10/18 18:35:40;;;;;;;6.07;2.30;;;12.70;99.90;;;;;;7297941;32;20206;-56
2023/10/18 18:39:42;;;;;;;4.78;2.12;;;12.70;99.90;;;;;;7289726;32;20095;-55
2023/10/18 18:43:45;;;;;;;3.40;1.85;;;12.70;99.90;;;;;;7295404;32;20214;-55
2023/10/18 18:47:47;;;;;;;3.85;2.33;;;12.80;99.90;;;;;;7302062;32;20127;-55
2023/10/18 18:51:49;;;;;;;5.55;2.10;;;12.70;99.90;;;;;;7299371;32;20092;-56
2023/10/18 18:55:51;;;;;;;2.50;1.67;;;12.80;99.90;;;;;;7297176;32;20132;-55
2023/10/18 18:59:55;;;;;;;3.92;2.00;;;12.70;99.90;;;;;;7298184;32;20736;-56
2023/10/18 19:03:57;;;;;;;4.93;1.87;;;12.80;99.90;;;;;;7294499;32;20101;-55
2023/10/18 19:07:59;;;;;;;5.20;2.05;;;12.80;99.90;;;;;;7300464;32;20226;-55
2023/10/18 19:12:01;;;;;;;7.93;1.85;;;12.70;99.90;;;;;;7300341;32;20119;-56
2023/10/18 19:16:07;;;;;;;2.70;1.80;;;12.70;99.90;;;;;;7301090;32;20217;-56
2023/10/18 19:20:11;;;;;;;3.42;2.10;;;12.80;99.90;;;;;;7297214;32;20567;-56
2023/10/18 19:24:13;;;;;;;6.35;2.50;;;12.70;99.90;;;;;;7295517;32;20165;-56
2023/10/18 19:28:14;;;;;;;4.15;2.75;;;12.70;99.90;;;;;;7299531;32;20218;-56
2023/10/18 19:32:16;;;;;;;4.65;2.08;;;12.80;99.90;;;;;;7292231;32;20207;-55
2023/10/18 19:36:19;;;;;;;4.57;2.30;;;12.70;99.90;;;;;;7293619;32;20571;-59
2023/10/18 19:40:22;;;;;;;5.15;2.12;;;12.80;99.90;;;;;;7301019;32;20475;-56
2023/10/18 19:44:24;;;;;;;3.85;2.05;;;12.80;99.90;;;;;;7301443;32;20190;-56
2023/10/18 19:48:26;;;;;;;2.87;1.70;;;12.80;99.90;;;;;;7300351;32;20104;-56
2023/10/18 19:52:28;;;;;;;3.55;1.65;;;12.80;99.90;;;;;;7300675;32;20179;-56
2023/10/18 19:56:30;;;;;;;4.28;2.28;;;12.70;99.90;;;;;;7303108;32;20095;-55
2023/10/18 20:00:32;;;;;;;3.45;1.90;;;12.70;99.90;;;;;;7295400;32;20126;-56
2023/10/18 20:04:33;;;;;;;4.30;2.28;;;12.60;99.90;;;;;;7300749;32;20244;-56
2023/10/18 20:08:35;;;;;;;3.95;2.10;;;12.60;99.90;;;;;;7296337;32;20100;-56
2023/10/18 20:12:38;;;;;;;4.60;2.20;;;12.50;99.90;;;;;;7300003;32;20096;-56
2023/10/18 20:16:40;;;;;;;4.25;2.42;;;12.30;99.90;;;;;;7291416;32;20104;-56
2023/10/18 20:20:42;;;;;;;4.20;2.50;;;12.30;99.90;;;;;;7302313;32;20122;-56
2023/10/18 20:24:44;;;;;;;8.63;4.25;;;12.30;99.90;;;;;;7293980;32;20218;-55
2023/10/18 20:28:48;;;;;;;4.57;2.62;;;12.10;99.90;;;;;;7298774;32;20177;-55
2023/10/18 20:32:51;;;;;;;5.90;3.62;;;12.00;99.90;;;;;;7290779;32;20208;-55
2023/10/18 20:36:54;;;;;;;5.32;3.00;;;11.70;99.90;;;;;;7297190;32;20096;-55
2023/10/18 20:40:56;;;;;;;5.07;3.20;;;11.30;99.90;;;;;;7297427;32;20104;-55
2023/10/18 20:44:58;;;;;;;5.72;3.40;;;11.20;99.90;;;;;;7291529;32;20226;-55
2023/10/18 20:49:06;;;;;;;5.03;2.95;;;11.10;99.90;;;;;;7298372;32;20883;-55
2023/10/18 20:53:11;;;;;;;6.97;3.92;;;11.00;99.90;;;;;;7296954;32;20103;-56
2023/10/18 20:57:16;;;;;;;7.43;3.83;;;10.80;99.90;;;;;;7301045;32;20130;-55
2023/10/18 21:01:21;;;;;;;5.20;3.58;;;10.70;99.90;;;;;;7296582;32;20206;-56
2023/10/18 21:05:29;;;;;;;5.50;3.55;;;10.80;99.90;;;;;;7300341;32;20122;-55
2023/10/18 21:09:32;;;;;;;6.03;3.70;;;10.70;99.90;;;;;;7287390;32;20486;-56
2023/10/18 21:13:35;;;;;;;6.18;3.97;;;10.60;99.90;;;;;;7298182;32;20238;-55
2023/10/18 21:17:36;;;;;;;6.62;4.22;;;10.60;99.90;;;;;;7296569;32;20096;-55
2023/10/18 21:21:38;;;;;;;6.30;4.05;;;10.50;99.90;;;;;;7300629;32;20165;-55
2023/10/18 21:25:40;;;;;;;6.15;3.50;;;10.50;99.90;;;;;;7298306;32;20202;-55
2023/10/18 21:29:42;;;;;;;7.80;3.83;;;10.40;99.90;;;;;;7296996;32;20131;-54
2023/10/18 21:33:44;;;;;;;7.85;4.35;;;10.40;99.90;;;;;;7304714;32;20278;-55
2023/10/18 21:37:46;;;;;;;8.40;4.18;;;10.50;99.90;;;;;;7297962;32;20198;-55
2023/10/18 21:41:47;;;;;;;7.03;4.30;;;10.60;99.90;;;;;;7297773;32;20119;-55
2023/10/18 21:45:59;;;;;;;7.57;4.62;;;10.60;99.90;;;;;;7296150;32;20175;-55
2023/10/18 21:50:01;;;;;;;7.22;4.35;;;10.50;99.90;;;;;;7300962;32;20122;-57
2023/10/18 21:54:03;;;;;;;7.05;4.45;;;10.60;99.90;;;;;;7305088;32;20108;-56
2023/10/18 21:58:05;;;;;;;5.95;4.22;;;10.60;99.90;;;;;;7301735;32;20131;-56
2023/10/18 22:02:07;;;;;;;6.65;4.62;;;10.60;99.90;;;;;;7303529;32;20541;-56
2023/10/18 22:06:09;;;;;;;8.23;4.55;;;10.60;99.90;;;;;;7302106;32;20115;-55